Time;durP1;ratioP1;P1;durP2;ratioP2;P2;SDS_P1;SDS_P2;PMS_P1;PMS_P2;Temp;Humidity;BMP_temperature;BMP_pressure;BME280_temperature;BME280_humidity;BME280_pressure;Samples;Min_cycle;Max_cycle;Signal;HPM_P1;HPM_P2
2023/09/20 00:00:52;;;;;;;0.50;0.50;;;15.20;99.90;;;;;;5093081;28;20924;-85
2023/09/20 00:03:19;;;;;;;1.43;0.50;;;15.20;99.90;;;;;;5096881;28;20479;-85
2023/09/20 00:05:47;;;;;;;3.13;0.83;;;15.20;99.90;;;;;;5097395;28;20564;-85
2023/09/20 00:08:14;;;;;;;0.97;0.50;;;15.90;99.90;;;;;;5097043;28;20448;-85
2023/09/20 00:10:45;;;;;;;2.60;0.40;;;15.20;99.90;;;;;;5097129;28;20806;-85
2023/09/20 00:13:12;;;;;;;0.70;0.67;;;15.20;99.90;;;;;;5096967;28;20979;-84
2023/09/20 00:15:40;;;;;;;0.70;0.70;;;15.10;99.90;;;;;;5097193;28;20447;-85
2023/09/20 00:18:07;;;;;;;0.87;0.60;;;15.10;99.90;;;;;;5097209;28;20547;-85
2023/09/20 00:20:35;;;;;;;0.90;0.57;;;15.10;99.90;;;;;;5097165;28;20452;-85
2023/09/20 00:23:02;;;;;;;4.00;0.93;;;15.40;99.90;;;;;;5096986;28;20479;-85
2023/09/20 00:25:29;;;;;;;0.57;0.57;;;15.00;99.90;;;;;;5097201;28;20439;-85
2023/09/20 00:27:57;;;;;;;0.93;0.80;;;15.00;99.90;;;;;;5097077;28;20428;-84
2023/09/20 00:30:24;;;;;;;0.50;0.50;;;15.00;99.90;;;;;;5096602;28;20944;-85
2023/09/20 00:32:51;;;;;;;0.67;0.60;;;15.50;99.90;;;;;;5096827;28;20471;-85
2023/09/20 00:35:18;;;;;;;0.70;0.63;;;14.90;99.90;;;;;;5096880;28;20455;-85
2023/09/20 00:37:46;;;;;;;0.47;0.47;;;14.90;99.90;;;;;;5096810;28;20483;-85
2023/09/20 00:40:16;;;;;;;1.20;0.70;;;14.90;99.90;;;;;;5096261;28;20479;-84
2023/09/20 00:42:45;;;;;;;3.13;0.50;;;14.90;99.90;;;;;;5096605;28;20902;-84
2023/09/20 00:45:15;;;;;;;1.27;0.63;;;16.10;99.90;;;;;;5096989;28;20440;-85
2023/09/20 00:47:44;;;;;;;0.40;0.40;;;14.90;99.90;;;;;;5096584;28;20443;-85
2023/09/20 00:50:12;;;;;;;1.10;0.50;;;14.90;99.90;;;;;;5096539;28;20451;-84
2023/09/20 00:52:43;;;;;;;0.80;0.70;;;14.90;99.90;;;;;;5096476;28;20456;-84
2023/09/20 00:55:16;;;;;;;0.80;0.80;;;14.90;99.90;;;;;;5096421;28;20517;-85
2023/09/20 00:57:45;;;;;;;0.50;0.50;;;14.90;99.90;;;;;;5096493;28;20428;-84
2023/09/20 01:00:21;;;;;;;0.50;0.50;;;15.00;99.90;;;;;;5096387;28;20456;-85
2023/09/20 01:02:50;;;;;;;0.57;0.50;;;14.90;99.90;;;;;;5096203;28;20510;-85
2023/09/20 01:05:21;;;;;;;0.70;0.70;;;14.90;99.90;;;;;;5096314;28;20443;-84
2023/09/20 01:07:50;;;;;;;2.83;0.90;;;14.90;99.90;;;;;;5096269;28;20432;-84
2023/09/20 01:10:18;;;;;;;0.50;0.50;;;14.90;99.90;;;;;;5096218;28;20866;-84
2023/09/20 01:12:45;;;;;;;1.60;0.50;;;15.00;99.90;;;;;;5095408;28;20538;-84
2023/09/20 01:15:13;;;;;;;0.70;0.50;;;14.90;99.90;;;;;;5096058;28;20459;-85
2023/09/20 01:17:46;;;;;;;0.67;0.67;;;14.80;99.90;;;;;;5096118;28;20470;-85
2023/09/20 01:20:18;;;;;;;0.47;0.47;;;14.80;99.90;;;;;;5096030;28;20484;-85
2023/09/20 01:22:47;;;;;;;2.73;1.07;;;14.80;99.90;;;;;;5095884;28;20460;-85
2023/09/20 01:25:22;;;;;;;0.50;0.50;;;14.80;99.90;;;;;;5096056;28;20496;-85
2023/09/20 01:27:48;;;;;;;0.40;0.40;;;14.80;99.90;;;;;;5095751;28;20473;-84
2023/09/20 01:30:16;;;;;;;3.47;0.70;;;14.70;99.90;;;;;;5095785;28;20448;-85
2023/09/20 01:32:44;;;;;;;0.50;0.50;;;16.00;99.90;;;;;;5095357;28;20480;-85
2023/09/20 01:35:10;;;;;;;0.60;0.60;;;14.70;99.90;;;;;;5095399;28;20456;-85
2023/09/20 01:37:38;;;;;;;1.00;0.60;;;14.70;99.90;;;;;;5095748;28;20498;-85
2023/09/20 01:40:15;;;;;;;1.50;0.70;;;14.70;99.90;;;;;;5095231;28;21010;-85
2023/09/20 01:42:43;;;;;;;1.37;0.60;;;14.70;99.90;;;;;;5095634;28;20461;-85
2023/09/20 01:45:14;;;;;;;0.77;0.53;;;14.70;99.90;;;;;;5095480;28;20444;-84
2023/09/20 01:47:44;;;;;;;0.53;0.53;;;14.70;99.90;;;;;;5095598;28;20517;-85
2023/09/20 01:50:11;;;;;;;1.70;0.60;;;14.70;99.90;;;;;;5095405;28;20544;-85
2023/09/20 01:52:38;;;;;;;0.50;0.50;;;14.70;99.90;;;;;;5095274;28;20855;-84
2023/09/20 01:55:09;;;;;;;0.53;0.53;;;14.70;99.90;;;;;;5095280;28;20855;-84
2023/09/20 01:57:36;;;;;;;0.80;0.80;;;14.70;99.90;;;;;;5095691;28;20446;-84
2023/09/20 02:00:16;;;;;;;3.43;1.07;;;14.70;99.90;;;;;;5095242;28;20509;-84
2023/09/20 02:02:44;;;;;;;1.83;0.80;;;14.70;99.90;;;;;;5095061;28;20932;-84
2023/09/20 02:05:14;;;;;;;0.70;0.70;;;14.70;99.90;;;;;;5095062;28;20440;-85
2023/09/20 02:07:41;;;;;;;1.00;0.80;;;14.70;99.90;;;;;;5095088;28;20448;-84
2023/09/20 02:10:09;;;;;;;1.80;0.80;;;14.70;99.90;;;;;;5095052;28;20452;-84
2023/09/20 02:12:36;;;;;;;1.10;0.70;;;14.70;99.90;;;;;;5094825;28;20468;-84
2023/09/20 02:15:07;;;;;;;0.90;0.80;;;14.70;99.90;;;;;;5095014;28;20806;-84
2023/09/20 02:17:35;;;;;;;0.73;0.50;;;14.70;99.90;;;;;;5095205;28;20429;-84
2023/09/20 02:20:08;;;;;;;1.83;0.60;;;15.00;99.90;;;;;;5094553;28;20944;-84
2023/09/20 02:22:36;;;;;;;1.07;0.60;;;14.60;99.90;;;;;;5094809;28;20483;-84
2023/09/20 02:25:05;;;;;;;1.43;0.77;;;14.90;99.90;;;;;;5093888;28;20448;-84
2023/09/20 02:27:34;;;;;;;0.60;0.60;;;14.50;99.90;;;;;;5094673;28;20444;-84
2023/09/20 02:30:00;;;;;;;1.10;0.57;;;14.50;99.90;;;;;;5094687;28;20825;-84
2023/09/20 02:32:27;;;;;;;0.60;0.60;;;14.50;99.90;;;;;;5094472;28;20806;-84
2023/09/20 02:34:54;;;;;;;0.60;0.60;;;14.40;99.90;;;;;;5094642;28;20860;-84
2023/09/20 02:37:22;;;;;;;0.60;0.50;;;14.50;99.90;;;;;;5094244;28;20940;-84
2023/09/20 02:39:49;;;;;;;0.80;0.60;;;14.50;99.90;;;;;;5094234;28;20487;-84
2023/09/20 02:42:17;;;;;;;1.33;0.70;;;14.40;99.90;;;;;;5094327;28;21007;-84
2023/09/20 02:44:47;;;;;;;0.80;0.70;;;14.40;99.90;;;;;;5094319;28;20437;-84
2023/09/20 02:47:13;;;;;;;1.83;0.63;;;14.50;99.90;;;;;;5094257;28;20444;-84
2023/09/20 02:49:40;;;;;;;0.90;0.70;;;14.30;99.90;;;;;;5094103;28;20975;-85
2023/09/20 02:52:07;;;;;;;0.40;0.40;;;14.40;99.90;;;;;;5093912;28;20509;-84
2023/09/20 02:54:33;;;;;;;0.70;0.70;;;14.60;99.90;;;;;;5094196;28;20899;-84
2023/09/20 02:57:00;;;;;;;0.70;0.60;;;14.30;99.90;;;;;;5094068;28;20440;-84
2023/09/20 02:59:27;;;;;;;1.50;0.50;;;14.30;99.90;;;;;;5094257;28;20955;-84
2023/09/20 03:01:55;;;;;;;0.53;0.53;;;14.40;99.90;;;;;;5094030;28;20456;-84
2023/09/20 03:04:22;;;;;;;0.47;0.47;;;14.40;99.90;;;;;;5094043;28;20797;-84
2023/09/20 03:06:48;;;;;;;1.77;1.00;;;14.30;99.90;;;;;;5093974;28;20471;-84
2023/09/20 03:09:17;;;;;;;2.57;0.87;;;14.80;99.90;;;;;;5093912;28;20451;-84
2023/09/20 03:11:44;;;;;;;0.90;0.80;;;14.30;99.90;;;;;;5093964;28;20472;-84
2023/09/20 03:14:13;;;;;;;0.40;0.40;;;14.40;99.90;;;;;;5093580;28;20515;-84
2023/09/20 03:16:43;;;;;;;1.50;0.70;;;14.30;99.90;;;;;;5093857;28;20504;-84
2023/09/20 03:19:14;;;;;;;0.73;0.70;;;14.40;99.90;;;;;;5093846;28;20468;-84
2023/09/20 03:21:41;;;;;;;0.70;0.70;;;14.30;99.90;;;;;;5093767;28;20547;-84
2023/09/20 03:24:08;;;;;;;2.40;0.80;;;14.40;99.90;;;;;;5093442;28;20940;-84
2023/09/20 03:26:36;;;;;;;0.73;0.50;;;14.40;99.90;;;;;;5093706;28;20451;-84
2023/09/20 03:29:03;;;;;;;0.93;0.50;;;14.30;99.90;;;;;;5093631;28;20776;-84
2023/09/20 03:31:31;;;;;;;0.87;0.70;;;14.40;99.90;;;;;;5093309;28;21044;-84
2023/09/20 03:33:59;;;;;;;2.77;0.70;;;14.30;99.90;;;;;;5093673;28;20538;-84
2023/09/20 03:36:27;;;;;;;0.90;0.57;;;14.30;99.90;;;;;;5093410;28;20452;-84
2023/09/20 03:38:57;;;;;;;0.40;0.40;;;14.30;99.90;;;;;;5093599;28;20448;-84
2023/09/20 03:41:24;;;;;;;2.30;0.60;;;14.30;99.90;;;;;;5093125;28;20484;-84
2023/09/20 03:43:51;;;;;;;0.60;0.60;;;14.20;99.90;;;;;;5093976;28;20837;-84
2023/09/20 03:46:18;;;;;;;0.87;0.60;;;14.50;99.90;;;;;;5093493;28;20444;-85
2023/09/20 03:48:44;;;;;;;0.43;0.43;;;14.20;99.90;;;;;;5093157;28;20948;-84
2023/09/20 03:51:15;;;;;;;0.90;0.70;;;14.20;99.90;;;;;;5093338;28;20459;-84
2023/09/20 03:53:43;;;;;;;0.70;0.70;;;14.20;99.90;;;;;;5093245;28;20838;-84
2023/09/20 03:56:11;;;;;;;0.73;0.50;;;14.20;99.90;;;;;;5093030;28;20447;-84
2023/09/20 03:58:38;;;;;;;1.47;0.60;;;14.20;99.90;;;;;;5093054;28;20956;-84
2023/09/20 04:01:05;;;;;;;0.53;0.53;;;14.20;99.90;;;;;;5092999;28;21046;-84
2023/09/20 04:03:34;;;;;;;3.60;0.63;;;14.20;99.90;;;;;;5093307;28;20428;-84
2023/09/20 04:06:01;;;;;;;0.40;0.40;;;14.20;99.90;;;;;;5092986;28;20501;-84
2023/09/20 04:08:28;;;;;;;1.67;1.10;;;14.30;99.90;;;;;;5093245;28;20455;-84
2023/09/20 04:10:57;;;;;;;0.60;0.60;;;14.20;99.90;;;;;;5092926;28;20454;-84
2023/09/20 04:13:24;;;;;;;0.77;0.77;;;14.10;99.90;;;;;;5093222;28;20529;-84
2023/09/20 04:15:51;;;;;;;0.73;0.70;;;13.90;99.90;;;;;;5092864;28;20959;-84
2023/09/20 04:18:18;;;;;;;5.13;0.90;;;14.00;99.90;;;;;;5093238;28;20450;-84
2023/09/20 04:20:46;;;;;;;1.20;0.53;;;14.00;99.90;;;;;;5093068;28;20455;-85
2023/09/20 04:23:13;;;;;;;0.90;0.60;;;14.00;99.90;;;;;;5093134;28;20464;-85
2023/09/20 04:25:39;;;;;;;0.40;0.40;;;13.90;99.90;;;;;;5093193;28;20444;-84
2023/09/20 04:28:09;;;;;;;0.60;0.60;;;14.00;99.90;;;;;;5092810;28;20929;-84
2023/09/20 04:30:38;;;;;;;0.80;0.70;;;13.80;99.90;;;;;;5093072;28;20932;-84
2023/09/20 04:33:06;;;;;;;2.23;1.23;;;13.90;99.90;;;;;;5092904;28;20463;-84
2023/09/20 04:35:34;;;;;;;0.90;0.53;;;13.90;99.90;;;;;;5093031;28;20489;-84
2023/09/20 04:38:01;;;;;;;0.50;0.50;;;13.90;99.90;;;;;;5092882;28;20436;-84
2023/09/20 04:40:28;;;;;;;0.43;0.43;;;13.90;99.90;;;;;;5092694;28;20893;-84
2023/09/20 04:42:55;;;;;;;0.90;0.60;;;13.90;99.90;;;;;;5092877;28;20459;-84
2023/09/20 04:45:23;;;;;;;0.60;0.50;;;13.90;99.90;;;;;;5092649;28;20432;-84
2023/09/20 04:47:50;;;;;;;0.40;0.40;;;14.00;99.90;;;;;;5094311;28;20517;-84
2023/09/20 04:50:17;;;;;;;0.90;0.50;;;13.90;99.90;;;;;;5096558;28;20428;-84
2023/09/20 04:52:45;;;;;;;1.00;0.63;;;13.90;99.90;;;;;;5096458;28;20456;-84
2023/09/20 04:55:11;;;;;;;2.20;0.70;;;13.90;99.90;;;;;;5096453;28;20533;-84
2023/09/20 04:57:38;;;;;;;1.90;0.50;;;13.80;99.90;;;;;;5096442;28;20936;-84
2023/09/20 05:00:15;;;;;;;0.73;0.60;;;13.80;99.90;;;;;;5096358;28;20459;-84
2023/09/20 05:02:45;;;;;;;1.10;0.67;;;13.80;99.90;;;;;;5096310;28;20467;-84
2023/09/20 05:05:12;;;;;;;0.70;0.50;;;13.80;99.90;;;;;;5096346;28;21002;-84
2023/09/20 05:07:38;;;;;;;0.90;0.40;;;13.80;99.90;;;;;;5096750;28;20483;-84
2023/09/20 05:10:06;;;;;;;0.53;0.53;;;13.80;99.90;;;;;;5095798;28;20447;-84
2023/09/20 05:12:33;;;;;;;0.87;0.70;;;13.80;99.90;;;;;;5095844;28;20468;-84
2023/09/20 05:15:00;;;;;;;0.57;0.43;;;13.80;99.90;;;;;;5096149;28;20501;-84
2023/09/20 05:17:27;;;;;;;1.10;0.73;;;13.90;99.90;;;;;;5095974;28;20440;-84
2023/09/20 05:19:58;;;;;;;1.90;0.70;;;13.80;99.90;;;;;;5096088;28;20486;-84
2023/09/20 05:22:24;;;;;;;1.03;0.93;;;13.80;99.90;;;;;;5095754;28;20511;-84
2023/09/20 05:24:51;;;;;;;0.57;0.57;;;13.90;99.90;;;;;;5096478;28;20448;-84
2023/09/20 05:27:18;;;;;;;2.00;0.70;;;13.80;99.90;;;;;;5095795;28;20440;-84
2023/09/20 05:29:44;;;;;;;0.73;0.60;;;13.80;99.90;;;;;;5095976;28;20436;-84
2023/09/20 05:32:11;;;;;;;1.03;0.60;;;13.90;99.90;;;;;;5095775;28;20471;-84
2023/09/20 05:34:39;;;;;;;0.87;0.70;;;13.90;99.90;;;;;;5095666;28;20814;-84
2023/09/20 05:37:07;;;;;;;0.47;0.47;;;13.90;99.90;;;;;;5095444;28;20509;-85
2023/09/20 05:39:35;;;;;;;0.80;0.80;;;13.90;99.90;;;;;;5095115;28;20890;-84
2023/09/20 05:42:03;;;;;;;1.03;0.60;;;13.90;99.90;;;;;;5095495;28;20456;-84
2023/09/20 05:44:31;;;;;;;0.50;0.50;;;13.80;99.90;;;;;;5095695;28;20506;-85
2023/09/20 05:46:58;;;;;;;1.23;0.70;;;13.90;99.90;;;;;;5095161;28;20941;-84
2023/09/20 05:49:25;;;;;;;0.60;0.60;;;14.00;99.90;;;;;;5095170;28;20451;-84
2023/09/20 05:51:52;;;;;;;0.97;0.60;;;14.10;99.90;;;;;;5094983;28;20826;-85
2023/09/20 05:54:20;;;;;;;0.97;0.73;;;14.00;99.90;;;;;;5095225;28;20616;-84
2023/09/20 05:56:50;;;;;;;2.33;0.53;;;14.10;99.90;;;;;;5095353;28;20444;-85
2023/09/20 05:59:17;;;;;;;0.80;0.50;;;14.10;99.90;;;;;;5095233;28;20456;-84
2023/09/20 06:01:43;;;;;;;0.70;0.63;;;14.10;99.90;;;;;;5095128;28;20463;-84
2023/09/20 06:04:11;;;;;;;0.50;0.50;;;14.10;99.90;;;;;;5095807;28;20450;-84
2023/09/20 06:06:39;;;;;;;0.70;0.60;;;14.10;99.90;;;;;;5095160;28;20542;-84
2023/09/20 06:09:05;;;;;;;0.60;0.50;;;14.70;99.90;;;;;;5095204;28;20448;-84
2023/09/20 06:11:33;;;;;;;1.30;0.63;;;14.10;99.90;;;;;;5094979;28;20468;-84
2023/09/20 06:14:00;;;;;;;1.07;0.73;;;14.10;99.90;;;;;;5094986;28;20480;-84
2023/09/20 06:16:27;;;;;;;1.60;0.70;;;14.20;99.90;;;;;;5094569;28;20791;-84
2023/09/20 06:18:53;;;;;;;0.90;0.67;;;14.30;99.90;;;;;;5094963;28;20448;-85
2023/09/20 06:21:20;;;;;;;0.60;0.50;;;14.50;99.90;;;;;;5094380;28;20475;-84
2023/09/20 06:23:47;;;;;;;1.57;0.90;;;14.70;99.90;;;;;;5094771;28;20455;-84
2023/09/20 06:26:14;;;;;;;3.43;0.80;;;14.80;99.90;;;;;;5094667;28;20440;-85
2023/09/20 06:28:42;;;;;;;0.77;0.53;;;14.80;99.90;;;;;;5094554;28;20494;-85
2023/09/20 06:31:12;;;;;;;0.87;0.60;;;14.90;99.90;;;;;;5094545;28;20821;-85
2023/09/20 06:33:39;;;;;;;0.60;0.60;;;15.10;99.90;;;;;;5094704;28;20459;-85
2023/09/20 06:36:06;;;;;;;0.70;0.70;;;15.10;99.90;;;;;;5094259;28;20476;-85
2023/09/20 06:38:34;;;;;;;1.30;0.90;;;15.20;99.90;;;;;;5094259;28;20522;-85
2023/09/20 06:41:01;;;;;;;0.60;0.50;;;15.40;99.90;;;;;;5093969;28;20479;-84
2023/09/20 06:43:28;;;;;;;0.60;0.60;;;15.30;99.90;;;;;;5094120;28;20832;-85
2023/09/20 06:45:57;;;;;;;0.73;0.50;;;15.30;99.90;;;;;;5094047;28;20867;-85
2023/09/20 06:48:24;;;;;;;0.70;0.43;;;15.40;99.90;;;;;;5094285;28;20440;-85
2023/09/20 06:50:52;;;;;;;0.67;0.60;;;15.40;99.90;;;;;;5094019;28;20828;-84
2023/09/20 06:53:20;;;;;;;0.70;0.60;;;15.50;99.90;;;;;;5094311;28;20436;-85
2023/09/20 06:55:48;;;;;;;0.50;0.50;;;16.00;99.90;;;;;;5094194;28;20510;-84
2023/09/20 06:58:15;;;;;;;0.90;0.70;;;15.50;99.90;;;;;;5093900;28;20944;-85
2023/09/20 07:00:42;;;;;;;0.47;0.47;;;15.80;99.90;;;;;;5094188;28;20459;-85
2023/09/20 07:03:10;;;;;;;5.23;0.70;;;15.70;99.90;;;;;;5094041;28;20463;-85
2023/09/20 07:05:37;;;;;;;0.60;0.60;;;15.70;99.90;;;;;;5094200;28;20447;-84
2023/09/20 07:08:04;;;;;;;3.70;0.70;;;15.90;99.90;;;;;;5094136;28;20451;-85
2023/09/20 07:10:32;;;;;;;1.00;0.60;;;16.10;99.90;;;;;;5093631;28;20501;-85
2023/09/20 07:13:00;;;;;;;1.33;0.60;;;17.40;99.90;;;;;;5093825;28;20456;-85
2023/09/20 07:15:28;;;;;;;0.80;0.80;;;16.90;99.90;;;;;;5093922;28;20471;-85
2023/09/20 07:18:11;;;;;;;0.80;0.80;;;17.00;99.90;;;;;;5093982;28;20452;-84
2023/09/20 07:20:40;;;;;;;0.70;0.70;;;16.90;99.90;;;;;;5093911;28;20450;-84
2023/09/20 07:23:08;;;;;;;0.60;0.60;;;17.10;99.90;;;;;;5093736;28;20494;-85
2023/09/20 07:25:36;;;;;;;2.10;0.70;;;17.30;99.90;;;;;;5093768;28;21011;-84
2023/09/20 07:28:06;;;;;;;1.37;0.70;;;17.50;99.90;;;;;;5093611;28;20448;-84
2023/09/20 07:30:39;;;;;;;0.77;0.77;;;17.70;99.90;;;;;;5093570;28;20535;-84
2023/09/20 07:33:11;;;;;;;1.43;0.70;;;17.90;99.90;;;;;;5093956;28;20472;-84
2023/09/20 07:35:39;;;;;;;0.70;0.50;;;18.10;99.90;;;;;;5093330;28;20507;-84
2023/09/20 07:38:12;;;;;;;0.60;0.50;;;18.30;99.90;;;;;;5093227;28;20956;-85
2023/09/20 07:40:40;;;;;;;0.83;0.70;;;18.30;99.90;;;;;;5093319;28;20487;-85
2023/09/20 07:43:07;;;;;;;0.60;0.60;;;18.30;99.90;;;;;;5093600;28;20513;-84
2023/09/20 07:45:37;;;;;;;0.90;0.60;;;18.40;99.90;;;;;;5093538;28;20437;-85
2023/09/20 07:48:12;;;;;;;0.80;0.77;;;18.40;99.90;;;;;;5093338;28;20440;-85
2023/09/20 07:50:41;;;;;;;1.37;0.90;;;18.40;99.90;;;;;;5093535;28;20435;-85
2023/09/20 07:53:10;;;;;;;0.70;0.60;;;18.40;99.90;;;;;;5093522;28;20468;-85
2023/09/20 07:55:37;;;;;;;1.33;0.70;;;18.50;99.90;;;;;;5093183;28;20474;-85
2023/09/20 07:58:05;;;;;;;1.77;0.50;;;18.70;99.90;;;;;;5093173;28;20438;-85
2023/09/20 08:00:32;;;;;;;0.63;0.63;;;18.80;99.90;;;;;;5093619;28;20474;-85
2023/09/20 08:02:59;;;;;;;1.50;0.77;;;18.80;99.90;;;;;;5093293;28;20884;-85
2023/09/20 08:05:28;;;;;;;0.87;0.43;;;19.10;99.90;;;;;;5093678;28;20448;-85
2023/09/20 08:07:56;;;;;;;1.13;0.57;;;19.30;99.90;;;;;;5093407;28;20454;-85
2023/09/20 08:10:23;;;;;;;0.50;0.50;;;19.60;99.90;;;;;;5093839;28;20432;-85
2023/09/20 08:12:49;;;;;;;1.80;0.80;;;19.80;99.90;;;;;;5093075;28;20539;-85
2023/09/20 08:15:16;;;;;;;0.73;0.53;;;19.80;99.90;;;;;;5093110;28;20481;-86
2023/09/20 08:20:29;;;;;;;0.60;0.50;;;20.00;99.90;;;;;;5093461;28;20950;-85
2023/09/20 09:01:33;;;;;;;0.50;0.50;;;21.50;99.90;;;;;;5096595;28;20477;-86
2023/09/20 09:04:03;;;;;;;3.63;0.80;;;21.60;99.90;;;;;;5096564;28;20443;-86
2023/09/20 09:06:30;;;;;;;1.43;0.53;;;22.00;99.90;;;;;;5096520;28;20446;-86
2023/09/20 09:08:57;;;;;;;1.07;0.97;;;22.40;99.90;;;;;;5096461;28;20447;-86
2023/09/20 09:11:26;;;;;;;0.97;0.60;;;22.70;99.90;;;;;;5096267;28;20466;-87
2023/09/20 09:13:54;;;;;;;2.60;0.50;;;23.00;99.90;;;;;;5095981;28;20434;-86
2023/09/20 09:16:21;;;;;;;0.70;0.50;;;23.20;99.90;;;;;;5096376;28;20624;-86
2023/09/20 09:18:48;;;;;;;0.60;0.50;;;23.20;99.90;;;;;;5096341;28;20209;-87
2023/09/20 09:21:17;;;;;;;1.50;0.70;;;23.00;99.90;;;;;;5096322;28;20470;-87
2023/09/20 09:23:46;;;;;;;0.53;0.50;;;22.80;99.90;;;;;;5096306;28;20447;-87
2023/09/20 09:26:13;;;;;;;3.33;0.60;;;22.60;99.90;;;;;;5096164;28;20451;-87
2023/09/20 09:28:43;;;;;;;1.90;0.80;;;22.70;99.90;;;;;;5096072;28;20812;-86
2023/09/20 09:31:10;;;;;;;0.50;0.50;;;22.80;99.90;;;;;;5096028;28;20205;-87
2023/09/20 09:33:36;;;;;;;1.33;0.60;;;22.80;99.90;;;;;;5095430;28;20436;-86
2023/09/20 09:36:04;;;;;;;0.80;0.77;;;23.00;99.90;;;;;;5095710;28;21006;-87
2023/09/20 09:38:33;;;;;;;0.80;0.60;;;23.00;99.90;;;;;;5096305;28;20665;-88
2023/09/20 09:41:00;;;;;;;0.60;0.50;;;23.20;99.90;;;;;;5095530;28;21006;-87
2023/09/20 09:43:28;;;;;;;4.40;0.80;;;23.30;99.90;;;;;;5096100;28;20447;-88
2023/09/20 09:46:05;;;;;;;0.90;0.60;;;23.30;99.90;;;;;;5095972;28;20198;-87
2023/09/20 09:48:33;;;;;;;1.23;0.60;;;23.30;99.90;;;;;;5096698;28;20295;-87
2023/09/20 09:51:01;;;;;;;0.60;0.50;;;23.20;99.90;;;;;;5095796;28;20189;-87
2023/09/20 09:53:30;;;;;;;0.60;0.60;;;23.20;99.90;;;;;;5095969;28;20201;-87
2023/09/20 09:55:59;;;;;;;0.50;0.43;;;23.50;99.90;;;;;;5095754;28;20756;-87
2023/09/20 09:58:25;;;;;;;1.00;0.50;;;23.70;99.90;;;;;;5095719;28;20197;-87
2023/09/20 10:00:55;;;;;;;1.23;0.50;;;24.40;99.90;;;;;;5095359;28;20194;-87
2023/09/20 10:03:29;;;;;;;0.40;0.40;;;23.90;99.90;;;;;;5095321;28;20205;-88
2023/09/20 10:06:05;;;;;;;1.25;0.80;;;23.80;99.90;;;;;;5095774;28;20185;-87
2023/09/20 10:08:34;;;;;;;0.60;0.60;;;23.70;99.90;;;;;;5095569;28;20272;-87
2023/09/20 10:11:01;;;;;;;0.90;0.60;;;23.80;99.90;;;;;;5095570;28;20193;-87
2023/09/20 10:13:29;;;;;;;0.68;0.68;;;23.80;99.90;;;;;;5096309;28;20209;-88
2023/09/20 10:15:58;;;;;;;0.70;0.70;;;23.80;99.90;;;;;;5095663;28;20225;-87
2023/09/20 10:18:33;;;;;;;0.90;0.63;;;23.80;99.90;;;;;;5095331;28;20227;-87
2023/09/20 10:21:05;;;;;;;2.47;0.50;;;23.80;99.90;;;;;;5095436;28;20181;-87
2023/09/20 10:23:35;;;;;;;1.70;0.60;;;23.90;99.90;;;;;;5095242;28;20277;-88
2023/09/20 10:26:02;;;;;;;1.23;0.60;;;24.00;99.90;;;;;;5095300;28;20193;-87
2023/09/20 10:28:38;;;;;;;0.50;0.50;;;24.00;99.90;;;;;;5095082;28;20209;-87
2023/09/20 10:31:06;;;;;;;1.02;0.95;;;24.00;99.90;;;;;;5095623;28;20209;-88
2023/09/20 10:33:44;;;;;;;0.73;0.60;;;24.10;99.90;;;;;;5095573;28;20555;-88
2023/09/20 10:36:13;;;;;;;1.83;0.70;;;24.10;99.90;;;;;;5095408;28;20678;-89
2023/09/20 10:38:44;;;;;;;1.10;0.88;;;24.30;99.90;;;;;;5095227;28;20206;-88
2023/09/20 10:41:12;;;;;;;0.55;0.55;;;24.30;99.90;;;;;;5094531;28;20340;-88
2023/09/20 10:43:50;;;;;;;3.20;0.77;;;24.60;99.90;;;;;;5095005;28;20201;-88
2023/09/20 10:46:22;;;;;;;0.55;0.50;;;24.60;99.90;;;;;;5094793;28;20213;-88
2023/09/20 10:48:52;;;;;;;0.93;0.70;;;24.50;99.90;;;;;;5094954;28;20185;-88
2023/09/20 10:51:39;;;;;;;1.52;0.80;;;24.40;99.90;;;;;;5094700;28;20584;-88
2023/09/20 10:54:18;;;;;;;1.60;0.85;;;24.10;99.90;;;;;;5094510;28;20566;-87
2023/09/20 10:56:55;;;;;;;0.70;0.70;;;24.00;99.90;;;;;;5094717;28;20201;-87
2023/09/20 10:59:23;;;;;;;0.70;0.70;;;23.90;99.90;;;;;;5094661;28;20840;-87
2023/09/20 11:01:51;;;;;;;0.70;0.70;;;24.00;99.90;;;;;;5094344;28;20222;-87
2023/09/20 11:04:19;;;;;;;1.00;0.88;;;23.80;99.90;;;;;;5094373;28;20205;-87
2023/09/20 11:06:48;;;;;;;0.93;0.60;;;23.90;99.90;;;;;;5094365;28;20204;-87
2023/09/20 11:09:15;;;;;;;1.50;0.80;;;24.00;99.90;;;;;;5094146;28;20624;-87
2023/09/20 11:11:43;;;;;;;0.85;0.70;;;24.00;99.90;;;;;;5094153;28;20758;-87
2023/09/20 11:14:12;;;;;;;1.03;0.80;;;24.10;99.90;;;;;;5094379;28;20281;-87
2023/09/20 11:16:41;;;;;;;0.70;0.70;;;23.90;99.90;;;;;;5094146;28;20682;-89
2023/09/20 11:19:10;;;;;;;1.73;1.00;;;23.80;99.90;;;;;;5094478;28;20255;-88
2023/09/20 11:21:39;;;;;;;0.75;0.75;;;23.80;99.90;;;;;;5094507;28;20239;-88
2023/09/20 11:24:07;;;;;;;0.90;0.87;;;23.90;99.90;;;;;;5094304;28;20190;-87
2023/09/20 11:26:34;;;;;;;0.70;0.70;;;23.90;99.90;;;;;;5094487;28;20280;-88
2023/09/20 11:29:04;;;;;;;0.70;0.70;;;23.90;99.90;;;;;;5094376;28;20197;-87
2023/09/20 11:31:32;;;;;;;0.70;0.60;;;23.80;99.90;;;;;;5094616;28;20274;-87
2023/09/20 11:34:00;;;;;;;0.60;0.60;;;23.90;99.90;;;;;;5094827;28;20673;-88
2023/09/20 11:36:28;;;;;;;1.98;0.60;;;23.90;99.90;;;;;;5094450;28;20240;-88
2023/09/20 11:38:56;;;;;;;0.80;0.50;;;24.00;99.90;;;;;;5093869;28;20745;-88
2023/09/20 11:41:24;;;;;;;0.70;0.67;;;24.00;99.90;;;;;;5093768;28;20244;-88
2023/09/20 11:43:55;;;;;;;0.82;0.65;;;24.00;99.90;;;;;;5094815;28;20201;-88
2023/09/20 11:46:22;;;;;;;0.88;0.70;;;24.10;99.90;;;;;;5094126;28;20181;-87
2023/09/20 11:48:49;;;;;;;1.98;0.75;;;24.10;99.90;;;;;;5093936;28;20201;-87
2023/09/20 11:51:16;;;;;;;0.77;0.70;;;24.00;99.90;;;;;;5094039;28;20221;-87
2023/09/20 11:53:44;;;;;;;0.85;0.60;;;24.10;99.90;;;;;;5094365;28;20216;-87
2023/09/20 11:56:12;;;;;;;0.60;0.60;;;24.10;99.90;;;;;;5094240;28;20270;-88
2023/09/20 11:58:39;;;;;;;0.60;0.60;;;24.10;99.90;;;;;;5097931;28;20201;-87
2023/09/20 12:01:09;;;;;;;1.08;0.70;;;24.00;99.90;;;;;;5097679;28;20190;-87
2023/09/20 12:03:35;;;;;;;0.80;0.55;;;24.00;99.90;;;;;;5097852;28;20764;-88
2023/09/20 12:06:03;;;;;;;1.90;0.80;;;24.00;99.90;;;;;;5097892;28;20200;-87
2023/09/20 12:08:33;;;;;;;0.52;0.52;;;23.90;99.90;;;;;;5097567;28;20738;-88
2023/09/20 12:11:00;;;;;;;0.63;0.63;;;23.80;99.90;;;;;;5097612;28;20572;-87
2023/09/20 12:13:28;;;;;;;0.60;0.60;;;23.90;99.90;;;;;;5097624;28;20201;-87
2023/09/20 12:15:54;;;;;;;1.13;1.02;;;23.80;99.90;;;;;;5097639;28;20232;-87
2023/09/20 12:18:21;;;;;;;1.23;0.75;;;23.70;99.90;;;;;;5097911;28;20197;-86
2023/09/20 12:20:49;;;;;;;1.20;0.70;;;23.70;99.90;;;;;;5097601;28;20208;-87
2023/09/20 12:23:17;;;;;;;1.10;0.93;;;23.60;99.90;;;;;;5097231;28;20689;-87
2023/09/20 12:25:44;;;;;;;3.33;1.20;;;23.40;99.90;;;;;;5097593;28;20197;-88
2023/09/20 12:28:11;;;;;;;0.83;0.77;;;23.50;99.90;;;;;;5097652;28;20573;-87
2023/09/20 12:30:39;;;;;;;0.60;0.53;;;23.40;99.90;;;;;;5097339;28;20270;-87
2023/09/20 12:33:07;;;;;;;0.88;0.80;;;23.30;99.90;;;;;;5097308;28;20229;-87
2023/09/20 12:35:34;;;;;;;1.52;0.80;;;23.30;99.90;;;;;;5097177;28;20201;-87
2023/09/20 12:38:01;;;;;;;1.63;0.68;;;23.20;99.90;;;;;;5097786;28;20545;-87
2023/09/20 12:40:28;;;;;;;0.53;0.50;;;23.10;99.90;;;;;;5096820;28;20217;-88
2023/09/20 12:42:55;;;;;;;0.70;0.70;;;23.10;99.90;;;;;;5096847;28;20228;-86
2023/09/20 12:45:22;;;;;;;1.03;0.93;;;23.00;99.90;;;;;;5097051;28;20201;-84
2023/09/20 12:47:51;;;;;;;1.60;0.83;;;23.00;99.90;;;;;;5097162;28;20188;-88
2023/09/20 12:50:18;;;;;;;0.90;0.90;;;23.00;99.90;;;;;;5096766;28;20286;-87
2023/09/20 12:52:47;;;;;;;2.10;1.00;;;23.00;99.90;;;;;;5096692;28;20225;-88
2023/09/20 12:55:14;;;;;;;0.60;0.60;;;22.90;99.90;;;;;;5096650;28;20217;-87
2023/09/20 12:57:41;;;;;;;0.77;0.60;;;22.90;99.90;;;;;;5096915;28;20716;-88
2023/09/20 13:00:12;;;;;;;1.07;0.60;;;22.90;99.90;;;;;;5096782;28;20970;-88
2023/09/20 13:02:38;;;;;;;0.70;0.70;;;22.80;99.90;;;;;;5096814;28;20758;-88
2023/09/20 13:05:07;;;;;;;0.73;0.53;;;22.80;99.90;;;;;;5096556;28;20582;-87
2023/09/20 13:07:34;;;;;;;1.00;0.70;;;22.80;99.90;;;;;;5096221;28;20204;-88
2023/09/20 13:10:01;;;;;;;1.50;0.60;;;22.70;99.90;;;;;;5096329;28;20550;-87
2023/09/20 13:12:27;;;;;;;0.60;0.60;;;22.70;99.90;;;;;;5096311;28;20224;-87
2023/09/20 13:14:54;;;;;;;0.93;0.87;;;22.80;99.90;;;;;;5096884;28;20519;-89
2023/09/20 13:17:21;;;;;;;1.67;0.90;;;22.70;99.90;;;;;;5096793;28;20221;-88
2023/09/20 13:19:48;;;;;;;0.60;0.50;;;22.70;99.90;;;;;;5096515;28;20844;-88
2023/09/20 13:22:16;;;;;;;1.53;0.70;;;22.70;99.90;;;;;;5096051;28;20209;-87
2023/09/20 13:24:44;;;;;;;1.10;1.00;;;22.70;99.90;;;;;;5096287;28;20478;-87
2023/09/20 13:27:12;;;;;;;1.10;0.93;;;22.70;99.90;;;;;;5096298;28;20571;-88
2023/09/20 13:29:40;;;;;;;1.17;0.80;;;22.70;99.90;;;;;;5096358;28;20545;-88
2023/09/20 13:32:08;;;;;;;0.50;0.50;;;22.60;99.90;;;;;;5096333;28;20311;-87
2023/09/20 13:34:35;;;;;;;0.90;0.80;;;22.60;99.90;;;;;;5096165;28;20247;-87